Time;durP1;ratioP1;P1;durP2;ratioP2;P2;SDS_P1;SDS_P2;PMS_P1;PMS_P2;Temp;Humidity;BMP_temperature;BMP_pressure;BME280_temperature;BME280_humidity;BME280_pressure;Samples;Min_cycle;Max_cycle;Signal;HPM_P1;HPM_P2
2023/07/26 00:01:42;;;;;;;1.50;1.17;;;;;;;18.08;67.82;96387.78;10537126;28;20040;-29
2023/07/26 00:06:42;;;;;;;2.83;1.37;;;;;;;18.09;67.76;96391.16;10530064;28;20119;-30
2023/07/26 00:11:43;;;;;;;3.47;1.40;;;;;;;18.10;67.51;96392.84;10529265;28;20476;-29
2023/07/26 00:16:43;;;;;;;4.47;1.47;;;;;;;18.07;67.46;96393.69;10533951;28;20024;-28
2023/07/26 00:21:44;;;;;;;4.97;1.60;;;;;;;18.07;67.25;96397.94;10523500;28;20277;-28
2023/07/26 00:26:44;;;;;;;3.00;1.27;;;;;;;18.02;67.73;96399.63;10524829;28;20359;-29
2023/07/26 00:31:44;;;;;;;1.93;1.13;;;;;;;18.00;68.14;96401.34;10524706;28;20507;-28
2023/07/26 00:36:45;;;;;;;1.50;1.03;;;;;;;17.99;67.39;96395.41;10505058;28;20294;-28
2023/07/26 00:41:45;;;;;;;2.97;1.30;;;;;;;17.93;67.13;96404.72;10529297;28;20040;-28
2023/07/26 00:46:45;;;;;;;1.77;1.10;;;;;;;17.96;67.46;96399.63;10532994;28;20110;-29
2023/07/26 00:51:46;;;;;;;3.50;1.47;;;;;;;17.95;67.95;96397.97;10506679;28;20032;-28
2023/07/26 00:56:46;;;;;;;7.47;1.87;;;;;;;17.91;68.32;96393.75;10527040;28;20060;-28
2023/07/26 01:01:48;;;;;;;2.88;1.30;;;;;;;17.94;68.60;96402.19;10516056;28;20790;-28
2023/07/26 01:07:12;;;;;;;3.97;2.17;;;;;;;17.91;67.66;96412.31;10509027;28;20110;-29
2023/07/26 01:12:18;;;;;;;2.65;1.50;;;;;;;17.91;66.91;96414.84;10532352;28;20080;-30
2023/07/26 01:17:18;;;;;;;2.03;1.00;;;;;;;17.89;67.73;96420.75;10501647;28;20041;-29
2023/07/26 01:22:18;;;;;;;4.70;1.93;;;;;;;17.77;67.60;96423.34;10523112;28;20037;-29
2023/07/26 01:27:19;;;;;;;4.03;2.37;;;;;;;17.80;67.29;96428.38;10531033;28;20035;-29
2023/07/26 01:32:24;;;;;;;4.55;1.50;;;;;;;17.77;67.18;96424.19;10528950;28;20293;-28
2023/07/26 01:37:25;;;;;;;2.83;1.40;;;;;;;17.78;67.44;96425.03;10519430;28;20289;-28
2023/07/26 01:42:26;;;;;;;3.85;2.03;;;;;;;17.78;67.09;96422.50;10530819;28;20497;-27
2023/07/26 01:47:26;;;;;;;3.33;1.35;;;;;;;17.73;66.67;96429.28;10529060;28;20036;-28
2023/07/26 01:52:27;;;;;;;1.80;1.20;;;;;;;17.69;66.30;96425.91;10514791;28;20486;-28
2023/07/26 01:57:28;;;;;;;4.55;1.60;;;;;;;17.70;65.48;96436.84;10530743;28;20406;-28
2023/07/26 02:02:29;;;;;;;2.40;1.30;;;;;;;17.71;65.65;96438.53;10514356;28;20032;-28
2023/07/26 02:07:29;;;;;;;2.20;1.30;;;;;;;17.65;65.12;96441.09;10507726;28;20282;-28
2023/07/26 02:12:30;;;;;;;1.45;1.10;;;;;;;17.63;64.52;96441.09;10504585;28;20036;-28
2023/07/26 02:17:30;;;;;;;6.77;1.77;;;;;;;17.59;63.68;96433.50;10522028;28;20487;-28
2023/07/26 02:22:30;;;;;;;6.03;1.20;;;;;;;17.59;64.50;96439.38;10531013;28;20032;-29
2023/07/26 02:27:31;;;;;;;2.15;1.35;;;;;;;17.51;65.54;96440.25;10510317;28;20489;-29
2023/07/26 02:32:31;;;;;;;3.10;1.47;;;;;;;17.56;65.66;96458.81;10510989;28;20032;-30
2023/07/26 02:37:32;;;;;;;3.22;1.35;;;;;;;17.54;66.15;96461.34;10518576;28;20783;-28
2023/07/26 02:42:32;;;;;;;5.53;2.20;;;;;;;17.52;66.22;96463.03;10525176;28;20123;-29
2023/07/26 02:47:32;;;;;;;3.10;1.60;;;;;;;17.48;66.44;96470.63;10513248;28;20044;-29
2023/07/26 02:52:33;;;;;;;2.45;1.60;;;;;;;17.49;66.13;96474.84;10506849;28;20092;-29
2023/07/26 02:57:33;;;;;;;3.33;1.70;;;;;;;17.46;66.03;96472.28;10510452;28;20035;-29
2023/07/26 03:02:34;;;;;;;1.93;1.27;;;;;;;17.45;66.18;96478.22;10534932;28;20032;-28
2023/07/26 03:07:36;;;;;;;2.45;1.60;;;;;;;17.43;65.47;96484.97;10531073;28;20034;-28
2023/07/26 03:12:37;;;;;;;3.00;1.23;;;;;;;17.38;65.69;96482.44;10530424;28;20505;-28
2023/07/26 03:17:37;;;;;;;2.10;1.20;;;;;;;17.35;65.88;96479.03;10526850;28;20032;-28
2023/07/26 03:22:37;;;;;;;1.63;1.15;;;;;;;17.32;65.92;96486.63;10510610;28;20040;-28
2023/07/26 03:27:38;;;;;;;3.73;1.60;;;;;;;17.34;65.71;96490.00;10537322;28;20036;-28
2023/07/26 03:32:38;;;;;;;2.03;1.23;;;;;;;17.30;65.85;96479.03;10510254;28;20182;-29
2023/07/26 03:37:38;;;;;;;1.53;1.43;;;;;;;17.27;66.39;96483.22;10519785;28;20035;-28
2023/07/26 03:42:39;;;;;;;2.77;1.20;;;;;;;17.35;65.67;96479.03;10515241;28;20077;-28
2023/07/26 03:47:40;;;;;;;2.33;1.67;;;;;;;17.22;66.69;96485.75;10507574;28;20034;-28
2023/07/26 03:52:40;;;;;;;1.80;1.53;;;;;;;17.23;65.56;96484.09;10529774;28;20470;-28
2023/07/26 03:57:41;;;;;;;2.77;1.30;;;;;;;17.27;65.59;96485.75;10536226;28;20486;-27
2023/07/26 04:02:41;;;;;;;4.10;1.13;;;;;;;17.20;65.52;96486.59;10526920;28;20504;-28
2023/07/26 04:07:41;;;;;;;2.47;1.45;;;;;;;17.20;65.27;96484.06;10516541;28;20028;-29
2023/07/26 04:12:42;;;;;;;1.90;1.30;;;;;;;17.16;64.94;96487.44;10535351;28;20032;-28
2023/07/26 04:17:42;;;;;;;2.07;1.90;;;;;;;17.12;65.07;96485.72;10527869;28;20047;-28
2023/07/26 04:22:42;;;;;;;2.97;1.30;;;;;;;16.99;65.41;96489.94;10525785;28;20031;-29
2023/07/26 04:27:43;;;;;;;1.97;1.40;;;;;;;17.05;65.02;96496.69;10534545;28;20031;-28
2023/07/26 04:32:43;;;;;;;2.80;1.50;;;;;;;17.04;65.46;96502.56;10531017;28;20036;-29
2023/07/26 04:37:43;;;;;;;3.63;1.50;;;;;;;16.96;65.54;96504.25;10520930;28;20099;-28
2023/07/26 04:42:44;;;;;;;3.23;1.60;;;;;;;16.94;65.23;96511.00;10524551;28;20032;-27
2023/07/26 04:47:44;;;;;;;4.55;1.73;;;;;;;16.95;64.99;96525.31;10532456;28;20024;-28
2023/07/26 04:52:45;;;;;;;3.63;1.73;;;;;;;17.63;63.45;96523.75;10532825;28;20481;-28
2023/07/26 04:57:47;;;;;;;3.40;1.40;;;;;;;18.21;61.72;96533.00;10533243;28;20076;-29
2023/07/26 05:02:48;;;;;;;2.70;2.15;;;;;;;18.49;60.97;96529.59;10523433;28;20042;-29
2023/07/26 05:07:48;;;;;;;6.70;1.50;;;;;;;18.61;60.93;96539.69;10523447;28;20032;-28
2023/07/26 05:12:48;;;;;;;6.37;2.70;;;;;;;18.68;60.51;96541.34;10530576;28;20043;-28
2023/07/26 05:17:50;;;;;;;2.53;1.40;;;;;;;18.79;60.44;96554.84;10528562;28;20684;-28
2023/07/26 05:22:51;;;;;;;2.03;1.60;;;;;;;18.83;60.65;96551.44;10528845;28;20293;-29
2023/07/26 05:27:55;;;;;;;1.67;1.00;;;;;;;18.90;60.44;96553.94;10528159;28;20028;-29
2023/07/26 05:32:55;;;;;;;3.75;1.45;;;;;;;18.89;60.25;96556.47;10539695;28;20085;-28
2023/07/26 05:37:55;;;;;;;1.07;0.90;;;;;;;18.94;60.29;96557.31;10527659;28;20032;-28
2023/07/26 05:42:56;;;;;;;4.13;1.27;;;;;;;18.99;60.27;96563.22;10532614;28;20115;-28
2023/07/26 05:47:56;;;;;;;2.23;1.63;;;;;;;19.03;60.23;96564.88;10532190;28;20073;-29
2023/07/26 05:52:56;;;;;;;5.63;1.57;;;;;;;19.11;59.69;96547.94;10532478;28;20115;-29
2023/07/26 05:57:57;;;;;;;3.63;1.77;;;;;;;19.16;59.79;96559.72;10527840;28;20282;-28
2023/07/26 06:02:59;;;;;;;2.67;1.30;;;;;;;19.17;60.11;96573.28;10524477;28;20486;-28
2023/07/26 06:07:59;;;;;;;1.67;1.10;;;;;;;19.17;60.39;96563.13;10532199;28;20270;-29
2023/07/26 06:13:00;;;;;;;1.80;1.10;;;;;;;19.17;60.24;96571.56;10530265;28;20115;-29
2023/07/26 06:18:00;;;;;;;1.27;1.05;;;;;;;19.12;60.12;96568.22;10528962;28;20413;-28
2023/07/26 06:23:01;;;;;;;1.13;1.03;;;;;;;19.12;60.24;96565.69;10532324;28;20070;-28
2023/07/26 06:28:01;;;;;;;3.00;1.40;;;;;;;19.20;60.22;96583.44;10531534;28;20032;-28
2023/07/26 06:33:01;;;;;;;4.53;1.57;;;;;;;19.22;60.12;96581.72;10530204;28;20088;-29
2023/07/26 06:38:02;;;;;;;1.63;1.07;;;;;;;19.23;60.15;96583.41;10529776;28;20293;-28
2023/07/26 06:43:03;;;;;;;1.80;1.30;;;;;;;19.23;60.22;96589.34;10540852;28;20028;-28
2023/07/26 06:48:03;;;;;;;2.10;1.40;;;;;;;19.28;60.55;96591.84;10539585;28;20032;-28
2023/07/26 06:53:04;;;;;;;1.95;1.50;;;;;;;19.34;60.30;96586.75;10537053;28;20568;-28
2023/07/26 06:58:05;;;;;;;1.90;1.33;;;;;;;19.31;60.18;96594.38;10526603;28;20029;-29
2023/07/26 07:03:08;;;;;;;1.52;1.13;;;;;;;19.29;60.65;96588.47;10528635;28;20028;-28
2023/07/26 07:08:08;;;;;;;3.78;1.40;;;;;;;19.28;60.53;96597.78;10538733;28;20024;-28
2023/07/26 07:13:08;;;;;;;1.73;1.10;;;;;;;19.27;60.60;96588.47;10537204;28;20051;-29
2023/07/26 07:18:09;;;;;;;1.73;1.00;;;;;;;19.27;60.85;96591.00;10527140;28;20290;-28
2023/07/26 07:23:11;;;;;;;3.40;1.30;;;;;;;19.29;60.71;96585.94;10537841;28;20051;-28
2023/07/26 07:28:12;;;;;;;1.00;0.90;;;;;;;19.29;60.70;96588.47;10537323;28;20032;-29
2023/07/26 07:33:13;;;;;;;2.58;1.40;;;;;;;19.30;60.49;96580.00;10525058;28;20036;-28
2023/07/26 07:38:13;;;;;;;1.60;1.23;;;;;;;19.31;60.51;96571.53;10528757;28;20043;-29
2023/07/26 07:43:14;;;;;;;2.25;1.20;;;;;;;19.38;60.43;96585.88;10525694;28;20032;-29
2023/07/26 07:48:14;;;;;;;4.07;1.20;;;;;;;19.44;60.23;96583.31;10526026;28;20029;-28
2023/07/26 07:53:14;;;;;;;1.73;1.17;;;;;;;19.43;60.17;96581.63;10530859;28;20806;-29
2023/07/26 07:58:16;;;;;;;2.30;1.07;;;;;;;19.41;60.13;96586.69;10536780;28;20039;-28
2023/07/26 08:03:17;;;;;;;2.03;1.00;;;;;;;19.41;59.94;96578.25;10536881;28;20062;-28
2023/07/26 08:08:17;;;;;;;2.23;1.10;;;;;;;19.42;59.96;96582.47;10536294;28;20026;-28
2023/07/26 08:13:18;;;;;;;2.40;1.00;;;;;;;19.42;59.88;96585.03;10527253;28;20257;-28
2023/07/26 08:18:18;;;;;;;2.47;1.47;;;;;;;19.42;59.82;96590.09;10536585;28;20645;-28
2023/07/26 08:23:19;;;;;;;2.00;1.20;;;;;;;19.42;59.94;96575.69;10535660;28;20173;-28
2023/07/26 08:28:19;;;;;;;1.35;1.00;;;;;;;19.44;59.95;96583.31;10530918;28;20059;-29
2023/07/26 08:33:20;;;;;;;1.93;0.97;;;;;;;19.45;59.40;96585.00;10535732;28;20031;-29
2023/07/26 08:38:20;;;;;;;1.30;1.07;;;;;;;19.48;58.13;96579.88;10528383;28;20032;-28
2023/07/26 08:43:23;;;;;;;1.40;0.93;;;;;;;19.52;57.51;96576.50;10535503;28;20036;-28
2023/07/26 08:48:24;;;;;;;1.10;0.90;;;;;;;19.55;57.03;96581.53;10534248;28;20103;-29
2023/07/26 08:53:27;;;;;;;1.10;0.73;;;;;;;19.49;56.07;96576.53;10530140;28;20103;-29
2023/07/26 08:58:27;;;;;;;1.25;0.93;;;;;;;19.48;55.89;96585.81;10526475;28;20085;-29
2023/07/26 09:03:28;;;;;;;1.03;0.83;;;;;;;19.49;58.72;96579.06;10524068;28;20035;-29
2023/07/26 09:08:28;;;;;;;1.80;0.80;;;;;;;19.49;57.91;96577.34;10520929;28;20328;-28
2023/07/26 09:13:29;;;;;;;0.80;0.60;;;;;;;19.49;55.65;96579.06;10524137;28;20019;-29
2023/07/26 09:18:30;;;;;;;1.80;0.97;;;;;;;19.50;54.70;96571.41;10529514;28;20055;-29
2023/07/26 09:23:30;;;;;;;2.03;0.93;;;;;;;19.49;54.51;96566.38;10527556;28;20278;-29
2023/07/26 09:28:31;;;;;;;1.03;0.60;;;;;;;19.50;56.32;96585.81;10519508;28;20494;-29
2023/07/26 09:33:31;;;;;;;1.27;1.07;;;;;;;19.51;52.87;96582.44;10529102;28;20286;-29
2023/07/26 09:38:32;;;;;;;2.83;1.10;;;;;;;19.59;51.61;96599.28;10520425;28;20036;-28
2023/07/26 09:43:33;;;;;;;1.47;1.17;;;;;;;19.58;51.59;96609.47;10533238;28;20569;-27
2023/07/26 09:48:33;;;;;;;1.35;0.95;;;;;;;19.54;55.78;96612.88;10529731;28;20403;-30
2023/07/26 09:53:36;;;;;;;1.15;0.90;;;;;;;19.51;57.43;96623.06;10523799;28;20044;-29
2023/07/26 09:58:39;;;;;;;2.03;1.08;;;;;;;19.48;57.65;96611.22;10532756;28;20043;-29
2023/07/26 10:03:41;;;;;;;1.42;0.70;;;;;;;19.48;57.97;96625.59;10518663;28;20474;-29
2023/07/26 10:08:43;;;;;;;2.00;0.90;;;;;;;19.47;58.21;96624.75;10527417;28;20028;-28
2023/07/26 10:13:45;;;;;;;1.00;0.60;;;;;;;19.46;58.39;96617.16;10523299;28;20109;-29
2023/07/26 10:18:47;;;;;;;0.65;0.65;;;;;;;19.46;58.42;96607.00;10530748;28;20032;-28
2023/07/26 10:23:48;;;;;;;1.48;0.88;;;;;;;19.50;58.40;96623.91;10524134;28;20035;-29
2023/07/26 10:28:51;;;;;;;1.75;0.68;;;;;;;19.54;57.75;96617.94;10523308;28;20028;-29
2023/07/26 10:33:54;;;;;;;1.08;0.90;;;;;;;19.66;57.50;96616.19;10528181;28;20040;-29
2023/07/26 10:38:54;;;;;;;1.63;1.20;;;;;;;19.69;57.39;96615.31;10534574;28;20036;-29
2023/07/26 10:44:06;;;;;;;1.98;0.95;;;;;;;19.65;58.07;96609.41;10524057;28;20070;-29
2023/07/26 10:49:20;;;;;;;0.60;0.60;;;;;;;19.62;58.37;96603.50;10523532;28;20039;-28
2023/07/26 10:54:48;;;;;;;1.00;0.70;;;;;;;19.59;58.69;96604.38;10527357;28;20036;-29
2023/07/26 11:00:17;;;;;;;0.95;0.80;;;;;;;19.59;58.73;96593.38;10515781;28;20132;-29
2023/07/26 11:05:19;;;;;;;1.00;0.90;;;;;;;19.58;59.02;96591.69;10523516;28;20036;-28
2023/07/26 11:10:23;;;;;;;1.63;1.00;;;;;;;19.58;59.16;96587.44;10522298;28;20131;-29
2023/07/26 11:15:30;;;;;;;1.45;0.90;;;;;;;19.58;59.12;96581.53;10521312;28;20516;-29
2023/07/26 11:20:31;;;;;;;1.70;1.08;;;;;;;19.59;59.12;96588.31;10533529;28;20040;-29
2023/07/26 11:25:35;;;;;;;2.75;1.38;;;;;;;19.69;60.87;96584.84;10525158;28;20035;-29
2023/07/26 11:30:37;;;;;;;3.78;1.90;;;;;;;19.74;60.19;96573.78;10537313;28;20299;-28
2023/07/26 11:35:42;;;;;;;3.17;1.90;;;;;;;19.81;59.96;96594.91;10531448;28;20059;-28
2023/07/26 11:40:43;;;;;;;2.97;1.95;;;;;;;19.75;59.56;96594.97;10536750;28;20055;-28
2023/07/26 11:45:43;;;;;;;3.67;1.23;;;;;;;19.68;59.42;96598.41;10537066;28;20111;-27
2023/07/26 11:50:44;;;;;;;6.30;1.42;;;;;;;19.65;59.52;96593.31;10535909;28;20074;-28
2023/07/26 11:55:50;;;;;;;4.30;1.17;;;;;;;19.66;59.45;96600.13;10536065;28;20040;-29
2023/07/26 12:00:51;;;;;;;2.00;1.30;;;;;;;19.65;59.37;96603.47;10536940;28;20043;-28
2023/07/26 12:05:54;;;;;;;1.63;0.98;;;;;;;19.64;59.36;96596.72;10536809;28;20119;-29
2023/07/26 12:10:54;;;;;;;2.63;1.10;;;;;;;19.64;59.38;96601.78;10526702;28;20418;-28
2023/07/26 12:16:01;;;;;;;4.78;1.40;;;;;;;19.65;59.50;96609.41;10535381;28;20040;-28
2023/07/26 12:21:08;;;;;;;3.40;1.63;;;;;;;19.76;59.80;96604.28;10534506;28;20035;-29
2023/07/26 12:26:09;;;;;;;4.97;2.30;;;;;;;19.87;59.85;96612.66;10531425;28;20893;-29
2023/07/26 12:31:26;;;;;;;4.37;1.90;;;;;;;19.86;59.41;96618.59;10532223;28;20093;-28
2023/07/26 12:36:30;;;;;;;12.68;3.42;;;;;;;19.80;59.13;96626.25;10527448;28;20541;-29
2023/07/26 12:41:30;;;;;;;7.65;1.73;;;;;;;19.68;59.35;96608.56;10525992;28;20035;-29
2023/07/26 12:46:33;;;;;;;11.80;1.50;;;;;;;19.73;59.38;96612.75;10535933;28;20027;-29
2023/07/26 12:51:33;;;;;;;4.15;1.42;;;;;;;19.70;59.05;96617.88;10534688;28;20780;-29
2023/07/26 12:56:34;;;;;;;3.83;1.60;;;;;;;19.70;59.25;96611.94;10524015;28;20028;-28
2023/07/26 13:01:39;;;;;;;6.22;1.42;;;;;;;19.69;59.48;96611.06;10534739;28;20081;-29
2023/07/26 13:06:39;;;;;;;3.10;1.27;;;;;;;19.69;59.18;96610.25;10529842;28;20493;-29
2023/07/26 13:11:40;;;;;;;3.10;1.37;;;;;;;19.69;59.40;96625.47;10533985;28;20028;-29
2023/07/26 13:16:40;;;;;;;9.23;2.60;;;;;;;19.82;60.20;96627.06;10530334;28;20089;-30
2023/07/26 13:21:40;;;;;;;3.67;1.80;;;;;;;19.91;59.59;96627.03;10525411;28;20036;-29
2023/07/26 13:26:41;;;;;;;4.40;2.10;;;;;;;19.90;59.36;96630.41;10529282;28;20030;-29
2023/07/26 13:31:41;;;;;;;8.20;1.73;;;;;;;19.84;59.05;96631.28;10528212;28;20063;-28
2023/07/26 13:36:41;;;;;;;3.27;1.70;;;;;;;19.79;59.26;96637.25;10529129;28;20031;-29
2023/07/26 13:41:42;;;;;;;1.87;1.43;;;;;;;19.77;59.39;96633.91;10528083;28;20040;-29
2023/07/26 13:46:42;;;;;;;3.77;1.57;;;;;;;19.74;59.47;96634.75;10527963;28;20370;-29
2023/07/26 13:51:42;;;;;;;2.37;1.40;;;;;;;19.74;59.53;96633.91;10529533;28;20508;-28
2023/07/26 13:56:43;;;;;;;3.83;1.23;;;;;;;19.73;59.45;96632.22;10528241;28;20084;-28
2023/07/26 14:01:43;;;;;;;4.50;1.50;;;;;;;19.72;59.45;96628.84;10529353;28;20504;-29
2023/07/26 14:06:43;;;;;;;3.57;1.40;;;;;;;19.73;59.42;96643.22;10531949;28;20039;-29
2023/07/26 14:11:44;;;;;;;2.57;1.50;;;;;;;19.83;60.03;96638.94;10523486;28;20036;-29
2023/07/26 14:16:45;;;;;;;3.25;2.40;;;;;;;19.94;59.35;96643.06;10522713;28;20024;-29
2023/07/26 14:21:45;;;;;;;5.70;2.50;;;;;;;19.93;59.39;96641.38;10520039;28;20028;-29
2023/07/26 14:26:45;;;;;;;3.58;1.83;;;;;;;19.86;59.16;96633.84;10530283;28;20040;-28
2023/07/26 14:31:46;;;;;;;4.53;2.40;;;;;;;19.81;59.55;96635.56;10529898;28;20035;-29
2023/07/26 14:36:46;;;;;;;3.58;1.52;;;;;;;19.78;59.56;96636.44;10522609;28;20089;-29
2023/07/26 14:41:47;;;;;;;3.87;1.47;;;;;;;19.77;59.62;96634.72;10527883;28;20036;-28
2023/07/26 14:46:49;;;;;;;3.43;1.77;;;;;;;19.76;59.41;96638.13;10531207;28;20458;-29
2023/07/26 14:51:50;;;;;;;2.55;1.40;;;;;;;19.76;59.45;96635.56;10532949;28;20035;-28
2023/07/26 14:56:50;;;;;;;2.37;1.40;;;;;;;19.77;59.42;96628.81;10530252;28;20486;-29
2023/07/26 15:01:51;;;;;;;2.60;1.40;;;;;;;19.75;59.58;96630.53;10539529;28;20486;-28
2023/07/26 15:06:51;;;;;;;6.77;1.87;;;;;;;19.88;59.30;96622.81;10534521;28;20028;-29
2023/07/26 15:11:51;;;;;;;3.97;2.03;;;;;;;19.97;59.03;96621.88;10536410;28;20035;-29
2023/07/26 15:16:52;;;;;;;6.13;2.00;;;;;;;19.97;58.97;96625.28;10528905;28;20032;-29
2023/07/26 15:21:52;;;;;;;3.50;1.80;;;;;;;19.92;58.97;96623.63;10538272;28;20035;-28
2023/07/26 15:26:52;;;;;;;4.07;1.90;;;;;;;19.85;58.85;96627.06;10538509;28;20658;-28
2023/07/26 15:31:53;;;;;;;4.10;1.30;;;;;;;19.77;59.24;96618.66;10533678;28;20110;-28
2023/07/26 15:36:53;;;;;;;1.73;1.20;;;;;;;19.73;59.46;96607.66;10542008;28;20607;-28
2023/07/26 15:41:54;;;;;;;1.98;1.25;;;;;;;19.67;59.17;96604.34;10534771;28;20381;-28
2023/07/26 15:46:54;;;;;;;2.93;1.53;;;;;;;19.68;59.04;96608.56;10521001;28;20847;-30
2023/07/26 15:51:54;;;;;;;2.47;1.00;;;;;;;19.65;59.16;96611.09;10544523;28;20299;-28
2023/07/26 15:56:55;;;;;;;0.93;0.73;;;;;;;19.66;58.83;96620.44;10544638;28;20032;-28
2023/07/26 16:01:55;;;;;;;2.50;1.20;;;;;;;19.70;58.80;96622.94;10535752;28;20085;-28
2023/07/26 16:06:55;;;;;;;2.87;1.20;;;;;;;19.79;58.11;96622.88;10534250;28;20419;-29
2023/07/26 16:11:56;;;;;;;6.20;0.98;;;;;;;19.69;58.57;96630.56;10516343;28;20024;-28
2023/07/26 16:16:56;;;;;;;1.50;1.00;;;;;;;19.50;58.57;96623.91;10518501;28;20024;-30
2023/07/26 16:21:57;;;;;;;1.93;0.83;;;;;;;19.52;58.88;96617.94;10539973;28;20036;-28
2023/07/26 16:26:57;;;;;;;0.93;0.83;;;;;;;19.61;58.70;96611.97;10530919;28;20490;-28
2023/07/26 16:31:58;;;;;;;1.63;1.30;;;;;;;19.57;58.52;96610.31;10533743;28;20028;-29
2023/07/26 16:36:58;;;;;;;1.02;0.75;;;;;;;19.63;58.36;96608.59;10531903;28;20024;-29
2023/07/26 16:42:00;;;;;;;1.43;0.90;;;;;;;19.58;58.27;96606.94;10533271;28;20074;-28
2023/07/26 16:47:02;;;;;;;1.88;1.20;;;;;;;19.54;58.61;96610.31;10528107;28;20044;-29
2023/07/26 16:52:03;;;;;;;1.35;0.95;;;;;;;19.58;58.40;96606.94;10545323;28;20110;-29
2023/07/26 16:57:03;;;;;;;2.35;1.30;;;;;;;19.56;58.47;96603.53;10534307;28;20405;-29
2023/07/26 17:02:04;;;;;;;1.77;1.20;;;;;;;19.59;57.90;96599.28;10524066;28;20044;-30
2023/07/26 17:07:06;;;;;;;3.22;1.77;;;;;;;19.52;57.77;96600.16;10517259;28;20308;-28
2023/07/26 17:12:09;;;;;;;2.63;1.50;;;;;;;19.66;56.72;96597.56;10522558;28;20032;-28
2023/07/26 17:17:10;;;;;;;3.80;1.63;;;;;;;19.63;56.38;96602.66;10519231;28;20097;-29
2023/07/26 17:22:10;;;;;;;7.55;1.98;;;;;;;19.67;56.83;96599.25;10514764;28;20519;-29
2023/07/26 17:27:11;;;;;;;3.93;1.90;;;;;;;19.81;56.46;96605.06;10526205;28;20036;-29
2023/07/26 17:32:11;;;;;;;2.83;1.27;;;;;;;19.77;56.51;96613.56;10531766;28;20042;-29
2023/07/26 17:37:11;;;;;;;3.58;1.17;;;;;;;19.74;56.76;96614.44;10532391;28;20282;-29
2023/07/26 17:42:12;;;;;;;3.60;1.60;;;;;;;19.74;56.79;96616.13;10527120;28;20031;-29
2023/07/26 17:47:13;;;;;;;9.03;1.63;;;;;;;19.83;57.21;96626.25;10532845;28;20032;-29
2023/07/26 17:52:13;;;;;;;2.63;1.25;;;;;;;19.81;56.38;96631.31;10530922;28;20048;-31
2023/07/26 17:57:13;;;;;;;1.53;1.10;;;;;;;19.82;56.22;96622.84;10526171;28;20448;-28
2023/07/26 18:02:14;;;;;;;1.43;1.10;;;;;;;19.71;56.41;96628.84;10536587;28;20409;-30
2023/07/26 18:07:14;;;;;;;2.80;1.23;;;;;;;19.67;56.33;96632.28;10530876;28;20633;-29
2023/07/26 18:12:14;;;;;;;2.27;1.13;;;;;;;19.67;56.02;96640.72;10515898;28;20536;-29
2023/07/26 18:17:15;;;;;;;2.17;1.60;;;;;;;19.67;56.07;96650.06;10512715;28;20046;-29
2023/07/26 18:22:16;;;;;;;1.90;1.50;;;;;;;19.70;56.41;96643.25;10481433;28;20039;-28
2023/07/26 18:27:17;;;;;;;1.75;1.35;;;;;;;19.80;56.47;96652.50;10508260;28;20532;-29
2023/07/26 18:32:17;;;;;;;0.93;0.93;;;;;;;19.68;56.86;96659.34;10531284;28;20040;-28
2023/07/26 18:37:18;;;;;;;4.03;1.80;;;;;;;19.61;56.67;96660.25;10539222;28;20400;-28
2023/07/26 18:42:18;;;;;;;1.87;1.30;;;;;;;19.58;56.79;96655.19;10519409;28;20286;-28
2023/07/26 18:47:19;;;;;;;2.07;1.50;;;;;;;19.61;57.08;96662.78;10533122;28;20039;-29
2023/07/26 18:52:19;;;;;;;1.93;1.53;;;;;;;19.53;57.52;96664.50;10520622;28;20289;-29
2023/07/26 18:57:19;;;;;;;2.53;1.75;;;;;;;19.39;57.55;96663.72;10528388;28;20164;-31
2023/07/26 19:02:20;;;;;;;2.33;1.75;;;;;;;19.27;57.86;96662.06;10548747;28;20051;-29
2023/07/26 19:07:21;;;;;;;2.58;1.77;;;;;;;19.28;57.85;96673.94;10551817;28;20032;-29
2023/07/26 19:12:21;;;;;;;2.90;1.67;;;;;;;19.25;58.05;96694.25;10550884;28;20031;-31
2023/07/26 19:17:21;;;;;;;2.60;1.53;;;;;;;19.19;58.27;96706.13;10538434;28;20032;-28
2023/07/26 19:22:22;;;;;;;2.20;1.60;;;;;;;19.21;58.27;96709.50;10545642;28;20040;-29
2023/07/26 19:27:23;;;;;;;4.43;1.90;;;;;;;19.13;58.36;96713.72;10537610;28;20145;-29
2023/07/26 19:32:23;;;;;;;3.38;1.42;;;;;;;19.20;58.21;96728.09;10525492;28;20036;-30
2023/07/26 19:37:23;;;;;;;2.37;1.50;;;;;;;19.19;58.24;96724.72;10519555;28;20067;-28
2023/07/26 19:42:24;;;;;;;1.90;1.43;;;;;;;19.09;58.36;96717.13;10550269;28;20309;-29
2023/07/26 19:47:24;;;;;;;2.20;1.50;;;;;;;19.10;58.23;96721.34;10529346;28;20031;-29
2023/07/26 19:52:24;;;;;;;1.33;1.10;;;;;;;19.16;58.05;96718.78;10547253;28;20095;-28
2023/07/26 19:57:25;;;;;;;2.50;1.27;;;;;;;19.06;57.95;96714.56;10535919;28;20059;-29
2023/07/26 20:02:25;;;;;;;1.97;1.33;;;;;;;18.95;58.14;96708.69;10533909;28;20050;-28
2023/07/26 20:07:25;;;;;;;3.20;1.30;;;;;;;18.96;57.94;96710.38;10541749;28;20092;-29
2023/07/26 20:12:26;;;;;;;2.80;1.47;;;;;;;18.98;57.92;96706.13;10539987;28;20297;-29
2023/07/26 20:17:27;;;;;;;5.07;1.52;;;;;;;19.09;57.42;96706.97;10547571;28;20535;-29
2023/07/26 20:22:27;;;;;;;2.42;1.10;;;;;;;18.94;57.12;96707.00;10529551;28;20092;-29
2023/07/26 20:27:28;;;;;;;2.13;1.43;;;;;;;19.19;56.81;96708.66;10529803;28;20032;-29
2023/07/26 20:32:30;;;;;;;1.27;1.10;;;;;;;18.99;57.26;96705.31;10527397;28;20054;-29
2023/07/26 20:37:30;;;;;;;3.58;1.45;;;;;;;18.95;56.69;96701.06;10537396;28;20435;-28
2023/07/26 20:42:31;;;;;;;1.60;1.30;;;;;;;18.83;57.55;96703.66;10532892;28;20077;-28
2023/07/26 20:47:32;;;;;;;2.00;1.48;;;;;;;18.81;57.15;96701.09;10520644;28;20310;-29
2023/07/26 20:52:32;;;;;;;2.17;1.53;;;;;;;18.78;57.12;96695.19;10531665;28;20032;-29
2023/07/26 20:57:32;;;;;;;3.43;1.60;;;;;;;18.79;57.10;96686.72;10534960;28;20039;-28
2023/07/26 21:02:33;;;;;;;2.30;1.50;;;;;;;18.80;56.98;96694.34;10527297;28;20055;-28
2023/07/26 21:07:33;;;;;;;1.30;1.20;;;;;;;18.60;57.15;96680.00;10533719;28;20660;-29
2023/07/26 21:12:36;;;;;;;2.00;1.55;;;;;;;18.48;57.00;96675.78;10530006;28;20287;-29
2023/07/26 21:17:37;;;;;;;4.80;1.63;;;;;;;18.38;57.25;96668.16;10520138;28;20028;-28
2023/07/26 21:22:37;;;;;;;4.57;1.40;;;;;;;18.42;56.57;96664.81;10526980;28;20043;-28
2023/07/26 21:27:38;;;;;;;5.67;1.90;;;;;;;18.30;56.85;96670.72;10526821;28;20775;-28
2023/07/26 21:32:38;;;;;;;2.10;1.30;;;;;;;18.26;56.50;96675.75;10520659;28;20286;-29
2023/07/26 21:37:38;;;;;;;2.25;1.70;;;;;;;18.13;56.74;96671.50;10520764;28;20032;-28
2023/07/26 21:42:39;;;;;;;2.92;1.70;;;;;;;18.09;56.89;96665.59;10533471;28;20048;-30
2023/07/26 21:47:39;;;;;;;1.40;1.20;;;;;;;18.09;57.03;96664.78;10532485;28;20031;-28
2023/07/26 21:52:40;;;;;;;5.27;1.60;;;;;;;18.09;56.69;96669.84;10531598;28;20520;-29
2023/07/26 21:57:40;;;;;;;2.00;1.37;;;;;;;18.01;57.50;96656.31;10529838;28;20433;-29
2023/07/26 22:02:41;;;;;;;2.33;1.60;;;;;;;17.98;57.00;96663.94;10526651;28;20297;-29
2023/07/26 22:07:42;;;;;;;1.52;1.17;;;;;;;17.95;56.84;96671.50;10524157;28;20048;-28
2023/07/26 22:12:42;;;;;;;2.67;1.40;;;;;;;17.96;56.57;96663.06;10524432;28;20055;-28
2023/07/26 22:17:42;;;;;;;2.77;1.50;;;;;;;17.92;56.72;96658.84;10532099;28;20493;-28
2023/07/26 22:22:43;;;;;;;2.63;1.40;;;;;;;17.91;56.41;96658.00;10529967;28;20504;-29
2023/07/26 22:27:43;;;;;;;2.47;1.50;;;;;;;17.94;56.66;96657.16;10524785;28;20353;-29
2023/07/26 22:32:44;;;;;;;2.63;1.40;;;;;;;17.90;56.68;96658.00;10530638;28;20036;-29
2023/07/26 22:37:44;;;;;;;3.57;1.30;;;;;;;17.91;56.48;96654.63;10526470;28;20051;-29
2023/07/26 22:42:44;;;;;;;3.22;1.63;;;;;;;17.93;56.45;96647.88;10531498;28;20062;-29
2023/07/26 22:47:45;;;;;;;2.53;1.30;;;;;;;17.91;56.51;96644.50;10524577;28;20123;-28
2023/07/26 22:52:45;;;;;;;2.17;1.37;;;;;;;17.91;56.54;96647.84;10530314;28;20203;-28
2023/07/26 22:57:45;;;;;;;1.33;1.23;;;;;;;17.87;56.71;96646.19;10515471;28;20029;-28
2023/07/26 23:02:46;;;;;;;4.40;1.53;;;;;;;17.81;56.79;96640.25;10531141;28;20036;-28
2023/07/26 23:07:46;;;;;;;1.90;1.20;;;;;;;17.81;56.49;96637.72;10523171;28;20028;-28
2023/07/26 23:12:47;;;;;;;2.17;0.97;;;;;;;17.82;56.32;96626.75;10526734;28;20287;-29
2023/07/26 23:17:47;;;;;;;4.05;1.27;;;;;;;17.77;56.63;96630.97;10538133;28;20873;-28